createdAt,value
2023-04-14T00:01:17.375Z,5.80
2023-04-14T00:04:06.143Z,5.80
2023-04-14T00:06:57.224Z,5.80
2023-04-14T00:09:45.175Z,5.80
2023-04-14T00:12:32.912Z,5.70
2023-04-14T00:15:20.892Z,5.80
2023-04-14T00:18:08.622Z,5.80
2023-04-14T00:20:56.257Z,5.80
2023-04-14T00:23:43.847Z,5.70
2023-04-14T00:26:35.387Z,5.70
2023-04-14T00:29:23.118Z,5.70
2023-04-14T00:32:10.877Z,5.70
2023-04-14T00:35:00.416Z,5.70
2023-04-14T00:37:48.088Z,5.70
2023-04-14T00:40:36.095Z,5.60
2023-04-14T00:43:23.679Z,5.60
2023-04-14T00:46:11.675Z,5.60
2023-04-14T00:48:59.792Z,5.60
2023-04-14T00:51:48.502Z,5.60
2023-04-14T00:54:38.985Z,5.60
2023-04-14T00:57:27.901Z,5.60
2023-04-14T01:00:16.252Z,5.60
2023-04-14T01:03:04.404Z,5.60
2023-04-14T01:05:52.350Z,5.60
2023-04-14T01:08:41.210Z,5.60
2023-04-14T01:12:03.128Z,5.60
2023-04-14T01:15:17.374Z,5.60
2023-04-14T01:18:46.036Z,5.60
2023-04-14T01:21:42.003Z,5.60
2023-04-14T01:25:09.050Z,5.70
2023-04-14T01:28:38.073Z,5.70
2023-04-14T01:31:50.048Z,5.70
2023-04-14T01:35:03.758Z,5.70
2023-04-14T01:37:59.001Z,5.70
2023-04-14T01:40:52.738Z,5.70
2023-04-14T01:43:48.738Z,5.70
2023-04-14T01:46:37.696Z,5.60
2023-04-14T01:49:29.244Z,5.70
2023-04-14T01:52:19.381Z,5.70
2023-04-14T01:55:11.033Z,5.70
2023-04-14T01:57:59.925Z,5.70
2023-04-14T02:00:50.398Z,5.70
2023-04-14T02:03:40.837Z,5.70
2023-04-14T02:06:32.277Z,5.70
2023-04-14T02:09:23.063Z,5.70
2023-04-14T02:12:12.805Z,5.70
2023-04-14T02:15:02.642Z,5.70
2023-04-14T02:17:52.238Z,5.60
2023-04-14T02:20:45.164Z,5.70
2023-04-14T02:23:34.002Z,5.60
2023-04-14T02:26:30.831Z,5.60
2023-04-14T02:29:23.939Z,5.60
2023-04-14T02:32:22.950Z,5.60
2023-04-14T02:35:26.983Z,5.60
2023-04-14T02:38:39.321Z,5.50
2023-04-14T02:41:30.806Z,5.50
2023-04-14T02:44:32.480Z,5.50
2023-04-14T02:47:29.813Z,5.40
2023-04-14T02:50:19.758Z,5.40
2023-04-14T02:53:08.720Z,5.40
2023-04-14T02:55:58.639Z,5.40
2023-04-14T02:58:52.737Z,5.40
2023-04-14T03:01:42.103Z,5.40
2023-04-14T03:04:35.924Z,5.40
2023-04-14T03:07:27.400Z,5.30
2023-04-14T03:10:15.959Z,5.30
2023-04-14T03:13:07.107Z,5.30
2023-04-14T03:15:56.698Z,5.30
2023-04-14T03:18:45.929Z,5.20
2023-04-14T03:21:36.251Z,5.20
2023-04-14T03:24:24.910Z,5.10
2023-04-14T03:27:28.067Z,5.10
2023-04-14T03:30:18.798Z,5.00
2023-04-14T03:33:14.886Z,5.00
2023-04-14T03:36:04.408Z,4.90
2023-04-14T03:38:55.922Z,5.00
2023-04-14T03:41:48.805Z,4.80
2023-04-14T03:44:38.966Z,4.70
2023-04-14T03:47:31.756Z,4.70
2023-04-14T03:50:23.381Z,4.60
2023-04-14T03:53:14.405Z,4.60
2023-04-14T03:56:05.370Z,4.50
2023-04-14T03:58:57.397Z,4.50
2023-04-14T04:01:47.851Z,4.50
2023-04-14T04:04:37.320Z,4.40
2023-04-14T04:07:28.565Z,4.40
2023-04-14T04:10:17.843Z,4.40
2023-04-14T04:13:17.455Z,4.50
2023-04-14T04:16:09.877Z,4.40
2023-04-14T04:19:00.310Z,4.40
2023-04-14T04:21:57.752Z,4.40
2023-04-14T04:24:47.613Z,4.40
2023-04-14T04:27:35.599Z,4.30
2023-04-14T04:30:25.419Z,4.40
2023-04-14T04:33:14.528Z,4.30
2023-04-14T04:36:05.546Z,4.40
2023-04-14T04:38:53.462Z,4.40
2023-04-14T04:41:41.069Z,4.40
2023-04-14T04:44:28.707Z,4.40
2023-04-14T04:47:16.726Z,4.40
2023-04-14T04:50:04.714Z,4.40
2023-04-14T04:52:52.344Z,4.40
2023-04-14T04:55:42.655Z,4.40
2023-04-14T04:58:30.640Z,4.40
2023-04-14T05:01:21.892Z,4.50
2023-04-14T05:04:09.612Z,4.50
2023-04-14T05:06:57.687Z,4.50
2023-04-14T05:09:45.583Z,4.40
2023-04-14T05:12:33.074Z,4.40
2023-04-14T05:15:20.586Z,4.40
2023-04-14T05:18:08.311Z,4.40
2023-04-14T05:20:56.252Z,4.40
2023-04-14T05:23:45.870Z,4.40
2023-04-14T05:26:52.054Z,4.40
2023-04-14T05:29:41.376Z,4.40
2023-04-14T05:32:29.300Z,4.40
2023-04-14T05:35:17.241Z,4.50
2023-04-14T05:38:05.045Z,4.40
2023-04-14T05:40:52.984Z,4.50
2023-04-14T05:43:40.477Z,4.50
2023-04-14T05:46:28.477Z,4.60
2023-04-14T05:49:16.725Z,4.60
2023-04-14T05:52:04.260Z,4.70
2023-04-14T05:54:51.942Z,4.70
2023-04-14T05:57:39.781Z,4.80
2023-04-14T06:00:27.737Z,4.80
2023-04-14T06:03:16.909Z,4.80
2023-04-14T06:06:05.691Z,4.80
2023-04-14T06:08:53.381Z,4.80
2023-04-14T06:11:41.358Z,4.80
2023-04-14T06:14:29.037Z,4.90
2023-04-14T06:17:16.950Z,5.00
2023-04-14T06:20:06.411Z,5.00
2023-04-14T06:22:54.319Z,5.00
2023-04-14T06:25:42.018Z,5.00
2023-04-14T06:28:29.688Z,5.10
2023-04-14T06:31:17.394Z,5.10
2023-04-14T06:34:05.142Z,5.20
2023-04-14T06:36:53.471Z,5.30
2023-04-14T06:39:41.396Z,5.30
2023-04-14T06:42:29.163Z,5.30
2023-04-14T06:45:16.822Z,5.40
2023-04-14T06:48:04.824Z,5.40
2023-04-14T06:50:57.364Z,5.40
2023-04-14T06:53:45.045Z,5.50
2023-04-14T06:56:32.732Z,5.40
2023-04-14T06:59:28.010Z,5.50
2023-04-14T07:02:15.977Z,5.60
2023-04-14T07:05:03.740Z,5.60
2023-04-14T07:07:52.236Z,5.70
2023-04-14T07:10:43.114Z,5.70
2023-04-14T07:13:30.629Z,5.80
2023-04-14T07:16:18.209Z,5.70
2023-04-14T07:19:06.180Z,5.70
2023-04-14T07:21:53.629Z,5.70
2023-04-14T07:24:41.859Z,5.70
2023-04-14T07:27:29.551Z,5.70
2023-04-14T07:30:17.422Z,5.70
2023-04-14T07:33:05.612Z,5.70
2023-04-14T07:36:03.024Z,5.70
2023-04-14T07:38:52.156Z,5.70
2023-04-14T07:41:39.766Z,5.70
2023-04-14T07:44:27.449Z,5.70
2023-04-14T07:47:15.125Z,5.70
2023-04-14T07:50:04.129Z,5.70
2023-04-14T07:52:51.778Z,5.70
2023-04-14T07:55:39.625Z,5.80
2023-04-14T07:58:29.275Z,5.70
2023-04-14T08:01:17.756Z,5.80
2023-04-14T08:04:06.329Z,5.80
2023-04-14T08:06:54.420Z,5.80
2023-04-14T08:09:43.582Z,5.90
2023-04-14T08:12:31.699Z,6.00
2023-04-14T08:15:19.937Z,6.00
2023-04-14T08:18:07.886Z,6.00
2023-04-14T08:20:56.253Z,6.10
2023-04-14T08:23:43.893Z,6.10
2023-04-14T08:26:31.609Z,6.10
2023-04-14T08:29:19.117Z,6.10
2023-04-14T08:32:06.980Z,6.10
2023-04-14T08:35:38.042Z,6.10
2023-04-14T08:38:02.948Z,6.20
2023-04-14T08:40:57.212Z,6.30
2023-04-14T08:43:45.207Z,6.30
2023-04-14T08:46:36.101Z,6.40
2023-04-14T08:49:35.685Z,6.30
2023-04-14T08:52:29.372Z,6.40
2023-04-14T08:55:19.458Z,6.40
2023-04-14T08:58:10.972Z,6.40
2023-04-14T09:00:59.622Z,6.40
2023-04-14T09:03:50.227Z,6.40
2023-04-14T09:06:38.069Z,6.40
2023-04-14T09:09:26.754Z,6.30
2023-04-14T09:12:16.956Z,6.30
2023-04-14T09:15:05.535Z,6.30
2023-04-14T09:17:55.662Z,6.30
2023-04-14T09:20:43.415Z,6.20
2023-04-14T09:23:31.706Z,6.20
2023-04-14T09:26:19.546Z,6.20
2023-04-14T09:29:07.120Z,6.20
2023-04-14T09:31:54.798Z,6.20
2023-04-14T09:34:53.984Z,6.20
2023-04-14T09:37:49.055Z,6.10
2023-04-14T09:40:36.713Z,6.10
2023-04-14T09:43:29.426Z,6.00
2023-04-14T09:46:17.612Z,6.00
2023-04-14T09:49:07.267Z,6.00
2023-04-14T09:52:03.766Z,6.10
2023-04-14T09:54:56.636Z,6.00
2023-04-14T09:57:47.920Z,6.00
2023-04-14T10:00:35.933Z,6.00
2023-04-14T10:03:41.735Z,6.00
2023-04-14T10:06:31.456Z,6.00
2023-04-14T10:09:24.393Z,6.10
2023-04-14T10:12:13.430Z,6.10
2023-04-14T10:15:01.049Z,6.10
2023-04-14T10:17:48.788Z,6.10
2023-04-14T10:20:37.635Z,6.10
2023-04-14T10:23:26.252Z,6.10
2023-04-14T10:26:15.179Z,6.10
2023-04-14T10:29:03.109Z,6.10
2023-04-14T10:32:01.097Z,5.90
2023-04-14T10:35:05.497Z,5.80
2023-04-14T10:37:58.682Z,5.80
2023-04-14T10:40:56.023Z,5.70
2023-04-14T10:43:43.530Z,5.80
2023-04-14T10:46:44.519Z,5.90
2023-04-14T10:49:41.210Z,5.90
2023-04-14T10:52:28.559Z,5.80
2023-04-14T10:55:16.441Z,5.90
2023-04-14T10:58:08.967Z,5.90
2023-04-14T11:00:59.913Z,5.80
2023-04-14T11:03:47.723Z,5.80
2023-04-14T11:06:47.687Z,5.90
2023-04-14T11:09:39.469Z,6.00
2023-04-14T11:12:28.707Z,6.10
2023-04-14T11:15:17.384Z,6.10
2023-04-14T11:18:17.949Z,6.10
2023-04-14T11:21:18.395Z,6.20
2023-04-14T11:24:06.807Z,6.20
2023-04-14T11:26:56.263Z,6.10
2023-04-14T11:29:48.816Z,6.10
2023-04-14T11:32:58.062Z,6.20
2023-04-14T11:35:45.987Z,6.30
2023-04-14T11:38:41.181Z,6.30
2023-04-14T11:41:30.572Z,6.20
2023-04-14T11:44:22.239Z,6.30
2023-04-14T11:47:09.852Z,6.40
2023-04-14T11:50:01.091Z,6.30
2023-04-14T11:52:48.723Z,6.30
2023-04-14T11:55:37.249Z,6.40
2023-04-14T11:58:27.536Z,6.50
2023-04-14T12:01:15.352Z,6.50
2023-04-14T12:04:04.294Z,6.60
2023-04-14T12:06:53.208Z,6.60
2023-04-14T12:09:49.042Z,6.60
2023-04-14T12:12:36.877Z,6.60
2023-04-14T12:15:24.743Z,6.50
2023-04-14T12:21:09.749Z,6.70
2023-04-14T12:24:01.863Z,6.80
2023-04-14T12:26:49.844Z,6.70
2023-04-14T12:29:37.836Z,6.60
2023-04-14T12:32:25.704Z,6.60
2023-04-14T12:35:13.319Z,6.50
2023-04-14T12:38:01.594Z,6.60
2023-04-14T12:40:49.957Z,6.50
2023-04-14T12:43:40.780Z,6.60
2023-04-14T12:46:28.478Z,6.70
2023-04-14T12:49:38.861Z,6.70
2023-04-14T12:52:38.897Z,6.90
2023-04-14T12:55:29.998Z,6.90
2023-04-14T12:58:17.842Z,6.90
2023-04-14T13:01:10.717Z,7.00
2023-04-14T13:03:58.443Z,7.20
2023-04-14T13:06:46.336Z,7.40
2023-04-14T13:09:33.787Z,7.40
2023-04-14T13:12:21.516Z,7.70
2023-04-14T13:15:30.976Z,7.70
2023-04-14T13:18:18.670Z,7.70
2023-04-14T13:21:06.904Z,7.80
2023-04-14T13:23:56.962Z,7.70
2023-04-14T13:26:46.655Z,7.90
2023-04-14T13:29:34.916Z,7.80
2023-04-14T13:32:22.856Z,7.80
2023-04-14T13:35:10.639Z,7.90
2023-04-14T13:37:58.674Z,7.70
2023-04-14T13:40:48.217Z,7.70
2023-04-14T13:43:36.383Z,7.70
2023-04-14T13:46:23.855Z,7.70
2023-04-14T13:49:12.274Z,7.70
2023-04-14T13:51:59.836Z,7.70
2023-04-14T13:54:47.334Z,7.70
2023-04-14T13:57:34.977Z,7.60
2023-04-14T14:00:22.598Z,7.50
2023-04-14T14:03:10.653Z,7.50
2023-04-14T14:05:58.658Z,7.60
2023-04-14T14:08:46.464Z,7.60
2023-04-14T14:11:34.709Z,7.70
2023-04-14T14:14:22.693Z,7.70
2023-04-14T14:17:10.354Z,7.70
2023-04-14T14:19:58.605Z,7.70
2023-04-14T14:22:46.640Z,7.70
2023-04-14T14:25:34.325Z,7.70
2023-04-14T14:28:22.349Z,7.70
2023-04-14T14:31:09.928Z,7.60
2023-04-14T14:33:57.681Z,7.50
2023-04-14T14:36:46.310Z,7.50
2023-04-14T14:39:34.397Z,7.40
2023-04-14T14:42:22.145Z,7.30
2023-04-14T14:45:10.676Z,7.20
2023-04-14T14:47:59.439Z,7.20
2023-04-14T14:50:47.288Z,7.20
2023-04-14T14:53:34.901Z,7.30
2023-04-14T14:56:22.600Z,7.40
2023-04-14T14:59:10.100Z,7.50
2023-04-14T15:01:58.415Z,7.70
2023-04-14T15:04:46.913Z,7.80
2023-04-14T15:07:34.591Z,7.80
2023-04-14T15:10:22.447Z,7.90
2023-04-14T15:13:10.306Z,7.80
2023-04-14T15:15:58.208Z,7.80
2023-04-14T15:18:45.856Z,7.90
2023-04-14T15:21:33.370Z,7.90
2023-04-14T15:24:21.272Z,8.00
2023-04-14T15:27:08.751Z,8.10
2023-04-14T15:29:57.375Z,8.20
2023-04-14T15:32:45.238Z,8.30
2023-04-14T15:35:40.320Z,8.40
2023-04-14T15:38:31.109Z,8.40
2023-04-14T15:41:18.711Z,8.40
2023-04-14T15:44:06.308Z,8.40
2023-04-14T15:46:54.018Z,8.40
2023-04-14T15:49:41.706Z,8.40
2023-04-14T15:52:32.261Z,8.40
2023-04-14T15:55:20.185Z,8.30
2023-04-14T15:58:08.280Z,8.30
2023-04-14T16:00:56.682Z,8.20
2023-04-14T16:03:44.261Z,8.20
2023-04-14T16:06:31.941Z,8.20
2023-04-14T16:09:19.450Z,8.10
2023-04-14T16:12:07.118Z,8.10
2023-04-14T16:14:54.651Z,8.10
2023-04-14T16:17:42.371Z,8.10
2023-04-14T16:20:30.010Z,8.00
2023-04-14T16:23:17.874Z,7.80
2023-04-14T16:26:05.719Z,7.70
2023-04-14T16:28:53.556Z,7.60
2023-04-14T16:31:41.159Z,7.50
2023-04-14T16:34:28.754Z,7.50
2023-04-14T16:37:19.952Z,7.50
2023-04-14T16:40:10.486Z,7.40
2023-04-14T16:42:58.014Z,7.40
2023-04-14T16:45:46.703Z,7.40
2023-04-14T16:48:36.023Z,7.40
2023-04-14T16:51:25.738Z,7.40
2023-04-14T16:54:13.325Z,7.40
2023-04-14T16:57:01.057Z,7.40
2023-04-14T16:59:48.769Z,7.40
2023-04-14T17:02:38.405Z,7.30
2023-04-14T17:05:26.488Z,7.30
2023-04-14T17:08:14.324Z,7.30
2023-04-14T17:11:02.389Z,7.30
2023-04-14T17:13:49.844Z,7.30
2023-04-14T17:16:38.336Z,7.30
2023-04-14T17:19:26.985Z,7.20
2023-04-14T17:22:17.314Z,7.20
2023-04-14T17:25:06.660Z,7.30
2023-04-14T17:27:54.482Z,7.30
2023-04-14T17:30:42.224Z,7.30
2023-04-14T17:33:30.026Z,7.30
2023-04-14T17:36:18.550Z,7.30
2023-04-14T17:39:08.458Z,7.20
2023-04-14T17:42:01.647Z,7.20
2023-04-14T17:44:52.354Z,7.30
2023-04-14T17:47:40.314Z,7.30
2023-04-14T17:50:29.384Z,7.30
2023-04-14T17:53:17.803Z,7.30
2023-04-14T17:56:06.082Z,7.30
2023-04-14T17:58:53.835Z,7.30
2023-04-14T18:01:42.254Z,7.30
2023-04-14T18:04:30.314Z,7.30
2023-04-14T18:07:17.977Z,7.30
2023-04-14T18:10:06.820Z,7.30
2023-04-14T18:12:54.666Z,7.30
2023-04-14T18:15:42.642Z,7.30
2023-04-14T18:18:30.653Z,7.30
2023-04-14T18:21:18.973Z,7.30
2023-04-14T18:26:59.250Z,7.30
2023-04-14T18:29:46.943Z,7.30
2023-04-14T18:32:34.846Z,7.30
2023-04-14T18:35:23.269Z,7.30
2023-04-14T18:38:11.824Z,7.30
2023-04-14T18:41:04.925Z,7.30
2023-04-14T18:43:53.234Z,7.30
2023-04-14T18:46:41.277Z,7.20
2023-04-14T18:49:29.216Z,7.20
2023-04-14T18:52:17.924Z,7.20
2023-04-14T18:55:06.343Z,7.20
2023-04-14T18:57:54.025Z,7.20
2023-04-14T19:00:45.364Z,7.20
2023-04-14T19:03:33.397Z,7.20
2023-04-14T19:06:22.757Z,7.20
2023-04-14T19:09:10.181Z,7.20
2023-04-14T19:11:57.871Z,7.20
2023-04-14T19:14:45.531Z,7.20
2023-04-14T19:17:36.618Z,7.20
2023-04-14T19:20:25.545Z,7.10
2023-04-14T19:23:13.055Z,7.20
2023-04-14T19:26:02.794Z,7.20
2023-04-14T19:28:53.061Z,7.20
2023-04-14T19:31:44.953Z,7.20
2023-04-14T19:34:32.766Z,7.20
2023-04-14T19:37:20.571Z,7.20
2023-04-14T19:40:10.176Z,7.20
2023-04-14T19:42:59.116Z,7.20
2023-04-14T19:45:57.424Z,7.10
2023-04-14T19:48:45.575Z,7.20
2023-04-14T19:51:36.891Z,7.10
2023-04-14T19:54:24.565Z,7.10
2023-04-14T19:57:12.561Z,7.10
2023-04-14T20:00:00.250Z,7.10
2023-04-14T20:02:48.070Z,7.10
2023-04-14T20:05:35.769Z,7.10
2023-04-14T20:08:25.292Z,7.10
2023-04-14T20:11:12.746Z,7.10
2023-04-14T20:14:00.472Z,7.10
2023-04-14T20:16:48.649Z,7.10
2023-04-14T20:19:37.359Z,7.10
2023-04-14T20:22:25.840Z,7.00
2023-04-14T20:25:14.925Z,7.00
2023-04-14T20:28:04.031Z,7.00
2023-04-14T20:30:53.810Z,7.00
2023-04-14T20:33:43.323Z,7.00
2023-04-14T20:36:35.862Z,7.00
2023-04-14T20:39:23.760Z,7.00
2023-04-14T20:42:11.762Z,6.90
2023-04-14T20:44:59.634Z,6.90
2023-04-14T20:47:47.198Z,7.00
2023-04-14T20:50:34.971Z,6.90
2023-04-14T20:53:27.305Z,6.90
2023-04-14T20:56:15.288Z,6.90
2023-04-14T20:59:03.781Z,6.90
2023-04-14T21:01:51.627Z,6.90
2023-04-14T21:04:39.545Z,6.90
2023-04-14T21:07:27.313Z,6.90
2023-04-14T21:10:17.858Z,6.90
2023-04-14T21:15:26.341Z,6.80
2023-04-14T21:16:14.995Z,6.80
2023-04-14T21:19:04.319Z,6.80
2023-04-14T21:21:53.215Z,6.80
2023-04-14T21:24:42.963Z,6.80
2023-04-14T21:27:30.916Z,6.90
2023-04-14T21:30:21.782Z,6.80
2023-04-14T21:33:10.351Z,6.80
2023-04-14T21:35:58.083Z,6.80
2023-04-14T21:38:45.798Z,6.80
2023-04-14T21:41:33.354Z,6.80
2023-04-14T21:44:22.186Z,6.80
2023-04-14T21:47:10.013Z,6.80
2023-04-14T21:49:57.682Z,6.80
2023-04-14T21:52:45.626Z,6.80
2023-04-14T21:55:33.373Z,6.70
2023-04-14T21:58:21.750Z,6.70
2023-04-14T22:01:12.626Z,6.70
2023-04-14T22:04:01.423Z,6.70
2023-04-14T22:06:49.592Z,6.70
2023-04-14T22:09:38.174Z,6.70
2023-04-14T22:12:27.661Z,6.80
2023-04-14T22:15:15.708Z,6.70
2023-04-14T22:18:03.608Z,6.70
2023-04-14T22:20:51.428Z,6.70
2023-04-14T22:23:40.460Z,6.70
2023-04-14T22:26:28.157Z,6.70
2023-04-14T22:29:15.773Z,6.60
2023-04-14T22:32:03.437Z,6.60
2023-04-14T22:34:51.119Z,6.60
2023-04-14T22:37:39.125Z,6.60
2023-04-14T22:40:26.643Z,6.60
2023-04-14T22:43:14.484Z,6.60
2023-04-14T22:46:02.560Z,6.60
2023-04-14T22:48:50.298Z,6.60
2023-04-14T22:51:38.023Z,6.50
2023-04-14T22:54:25.572Z,6.50
2023-04-14T22:57:13.521Z,6.50
2023-04-14T23:00:01.549Z,6.50
2023-04-14T23:02:53.822Z,6.50
2023-04-14T23:05:41.826Z,6.50
2023-04-14T23:08:30.661Z,6.50
2023-04-14T23:11:21.933Z,6.50
2023-04-14T23:14:09.530Z,6.50
2023-04-14T23:16:58.267Z,6.50
2023-04-14T23:19:46.501Z,6.50
2023-04-14T23:22:36.082Z,6.40
2023-04-14T23:25:23.541Z,6.40
2023-04-14T23:28:12.389Z,6.40
2023-04-14T23:30:59.990Z,6.40
2023-04-14T23:33:53.025Z,6.40
2023-04-14T23:36:41.875Z,6.40
2023-04-14T23:39:33.411Z,6.40
2023-04-14T23:42:21.036Z,6.30
2023-04-14T23:45:09.680Z,6.30
2023-04-14T23:47:58.756Z,6.30
2023-04-14T23:51:00.430Z,6.30
2023-04-14T23:54:02.153Z,6.30
2023-04-14T23:56:49.928Z,6.30
2023-04-14T23:59:38.505Z,6.30
